Time;durP1;ratioP1;P1;durP2;ratioP2;P2;SDS_P1;SDS_P2;PMS_P1;PMS_P2;Temp;Humidity;BMP_temperature;BMP_pressure;BME280_temperature;BME280_humidity;BME280_pressure;Samples;Min_cycle;Max_cycle;Signal;HPM_P1;HPM_P2
2022/08/07 00:01:14;;;;;;;;;9.67;9.67;;;;;22.39;42.18;101837.73;110571;1258;18756;-51
2022/08/07 00:03:41;;;;;;;;;7.67;7.67;;;;;22.36;42.52;101832.45;110603;1259;19667;-57
2022/08/07 00:06:08;;;;;;;;;11.67;10.67;;;;;22.36;42.79;101837.68;110479;1260;18478;-52
2022/08/07 00:08:37;;;;;;;;;12.67;10.00;;;;;22.34;42.88;101842.95;110522;1260;18829;-53
2022/08/07 00:11:04;;;;;;;;;11.00;10.00;;;;;22.36;43.12;101845.20;110705;1258;19493;-53
2022/08/07 00:13:32;;;;;;;;;12.00;11.67;;;;;22.34;43.09;101847.39;110662;1258;18706;-56
2022/08/07 00:15:59;;;;;;;;;10.00;10.00;;;;;22.33;43.26;101845.67;110694;1258;18821;-53
2022/08/07 00:18:26;;;;;;;;;12.00;10.00;;;;;22.27;43.31;101846.11;110698;1258;19408;-54
2022/08/07 00:20:54;;;;;;;;;11.00;11.00;;;;;22.25;43.35;101845.45;110629;1258;18759;-51
2022/08/07 00:23:21;;;;;;;;;11.33;10.33;;;;;22.20;43.52;101847.23;110424;1261;19167;-55
2022/08/07 00:25:49;;;;;;;;;9.67;9.33;;;;;22.13;44.02;101850.27;110694;1258;19737;-56
2022/08/07 00:28:16;;;;;;;;;9.00;7.00;;;;;22.16;44.15;101848.76;110738;1258;18725;-54
2022/08/07 00:30:44;;;;;;;;;10.00;9.00;;;;;22.19;44.13;101849.71;110743;1258;20394;-54
2022/08/07 00:33:11;;;;;;;;;9.00;9.00;;;;;22.20;44.20;101848.36;110728;1258;21010;-54
2022/08/07 00:35:38;;;;;;;;;10.00;9.33;;;;;22.19;44.24;101850.44;110813;1258;18764;-53
2022/08/07 00:38:06;;;;;;;;;9.00;9.00;;;;;22.18;44.38;101848.02;110785;1258;19643;-54
2022/08/07 00:40:33;;;;;;;;;9.00;9.00;;;;;22.16;44.52;101850.02;110662;1258;19481;-53
2022/08/07 00:43:00;;;;;;;;;10.00;10.00;;;;;22.15;44.57;101850.46;110640;1258;18376;-55
2022/08/07 00:45:28;;;;;;;;;10.00;10.00;;;;;22.13;44.74;101853.54;110673;1258;18668;-53
2022/08/07 00:47:55;;;;;;;;;11.33;11.00;;;;;22.10;44.83;101850.22;110743;1258;19523;-56
2022/08/07 00:50:23;;;;;;;;;11.00;10.00;;;;;22.09;45.08;101849.55;110776;1258;18713;-54
2022/08/07 00:52:50;;;;;;;;;9.67;9.00;;;;;22.10;45.08;101848.98;110705;1259;20247;-55
2022/08/07 00:55:18;;;;;;;;;10.00;10.00;;;;;22.07;45.16;101853.42;110708;1258;19551;-53
2022/08/07 00:57:45;;;;;;;;;10.33;9.00;;;;;22.00;45.54;101849.05;110793;1257;18631;-53
2022/08/07 01:00:14;;;;;;;;;10.00;10.00;;;;;22.00;45.54;101846.71;110757;1258;18932;-53
2022/08/07 01:02:41;;;;;;;;;10.00;10.00;;;;;21.96;45.68;101848.38;110689;1258;22731;-56
2022/08/07 01:05:09;;;;;;;;;10.00;10.00;;;;;21.93;45.89;101848.02;110535;1259;18751;-55
2022/08/07 01:07:36;;;;;;;;;11.00;11.00;;;;;21.93;45.97;101849.30;110425;1261;19262;-55
2022/08/07 01:10:03;;;;;;;;;11.00;10.00;;;;;21.92;45.89;101850.22;110586;1258;19493;-54
2022/08/07 01:12:31;;;;;;;;;10.33;10.33;;;;;21.86;46.27;101852.66;110779;1258;18769;-56
2022/08/07 01:14:59;;;;;;;;;11.67;11.67;;;;;21.73;46.22;101852.02;110678;1258;22803;-57
2022/08/07 01:17:26;;;;;;;;;10.67;10.00;;;;;21.62;46.37;101848.77;110806;1258;19602;-56
2022/08/07 01:19:54;;;;;;;;;11.00;10.33;;;;;21.62;46.45;101849.91;110760;1258;18721;-56
2022/08/07 01:22:21;;;;;;;;;9.00;9.00;;;;;21.61;46.25;101846.52;110786;1258;18741;-54
2022/08/07 01:24:49;;;;;;;;;12.33;10.67;;;;;21.62;46.18;101844.27;110486;1259;19504;-52
2022/08/07 01:27:16;;;;;;;;;10.00;9.00;;;;;21.65;46.06;101840.52;110764;1258;22808;-54
2022/08/07 01:29:43;;;;;;;;;10.33;10.33;;;;;21.64;46.14;101842.05;110820;1258;19468;-54
2022/08/07 01:32:11;;;;;;;;;11.67;10.67;;;;;21.63;46.14;101842.01;110457;1260;19427;-54
2022/08/07 01:34:38;;;;;;;;;13.00;11.00;;;;;21.60;46.08;101841.51;110580;1258;18979;-52
2022/08/07 01:37:06;;;;;;;;;12.67;12.33;;;;;21.66;45.96;101843.67;110763;1258;18795;-54
2022/08/07 01:39:33;;;;;;;;;10.00;10.00;;;;;21.66;45.61;101837.69;110756;1258;19604;-54
2022/08/07 01:42:00;;;;;;;;;10.33;10.33;;;;;21.65;45.55;101839.58;110765;1258;18725;-55
2022/08/07 01:44:28;;;;;;;;;12.00;11.00;;;;;21.65;45.62;101837.39;110654;1258;18796;-53
2022/08/07 01:46:55;;;;;;;;;10.33;9.33;;;;;21.63;45.59;101840.02;110570;1259;19477;-54
2022/08/07 01:49:22;;;;;;;;;10.00;10.00;;;;;21.64;45.51;101837.58;110766;1258;18841;-53
2022/08/07 01:51:50;;;;;;;;;11.00;10.33;;;;;21.57;45.67;101839.09;110768;1258;18833;-50
2022/08/07 01:54:17;;;;;;;;;11.00;11.00;;;;;21.54;45.86;101842.36;110473;1259;19811;-55
2022/08/07 01:56:45;;;;;;;;;11.00;10.50;;;;;21.51;45.72;101839.02;110801;1258;21461;-57
2022/08/07 01:59:12;;;;;;;;;10.33;10.00;;;;;21.53;45.82;101840.25;110788;1258;18693;-54
2022/08/07 02:01:39;;;;;;;;;11.67;10.00;;;;;21.53;45.81;101844.98;110562;1258;22258;-55
2022/08/07 02:04:07;;;;;;;;;10.33;10.00;;;;;21.53;45.72;101844.82;110727;1258;18872;-56
2022/08/07 02:06:34;;;;;;;;;13.00;12.00;;;;;21.52;45.67;101846.71;110655;1258;20356;-53
2022/08/07 02:09:02;;;;;;;;;11.00;10.00;;;;;21.48;45.84;101845.11;110538;1258;19557;-56
2022/08/07 02:11:29;;;;;;;;;10.33;10.33;;;;;21.44;46.04;101844.83;110806;1258;18676;-53
2022/08/07 02:13:57;;;;;;;;;11.00;10.00;;;;;21.42;45.84;101842.86;110745;1258;18817;-53
2022/08/07 02:16:25;;;;;;;;;10.00;10.00;;;;;21.36;45.91;101844.50;110572;1258;23091;-54
2022/08/07 02:18:52;;;;;;;;;10.67;10.33;;;;;21.30;46.02;101845.65;110764;1258;22631;-52
2022/08/07 02:21:20;;;;;;;;;11.67;11.00;;;;;21.30;45.96;101846.20;110738;1258;18800;-56
2022/08/07 02:23:48;;;;;;;;;11.00;11.00;;;;;21.34;45.86;101847.64;110830;1258;19765;-56
2022/08/07 02:26:16;;;;;;;;;11.67;11.00;;;;;21.32;45.54;101846.70;110609;1258;19022;-54
2022/08/07 02:28:43;;;;;;;;;10.00;9.33;;;;;21.30;45.52;101847.84;110465;1260;18838;-56
2022/08/07 02:31:10;;;;;;;;;11.00;10.00;;;;;21.30;45.63;101846.45;110446;1260;19914;-53
2022/08/07 02:33:38;;;;;;;;;11.67;10.33;;;;;21.26;45.33;101846.77;110778;1258;18891;-53
2022/08/07 02:36:05;;;;;;;;;10.00;7.50;;;;;21.15;45.57;101842.27;110750;1258;18849;-53
2022/08/07 02:38:33;;;;;;;;;11.00;10.00;;;;;21.11;45.54;101845.34;110670;1258;20062;-54
2022/08/07 02:41:00;;;;;;;;;9.50;8.00;;;;;21.05;45.49;101848.27;110633;1258;18727;-56
2022/08/07 02:43:28;;;;;;;;;13.00;12.50;;;;;21.06;45.44;101847.09;110626;1258;18753;-54
2022/08/07 02:45:55;;;;;;;;;10.67;10.33;;;;;21.12;45.38;101848.95;110560;1258;19400;-56
2022/08/07 02:48:24;;;;;;;;;11.00;10.33;;;;;21.09;45.26;101846.30;110396;1260;18863;-57
2022/08/07 02:50:52;;;;;;;;;9.00;9.00;;;;;21.09;45.35;101848.83;110477;1259;22320;-55
2022/08/07 02:53:21;;;;;;;;;11.00;11.00;;;;;21.09;45.01;101850.30;110777;1258;21064;-53
2022/08/07 02:55:48;;;;;;;;;7.67;7.67;;;;;21.06;45.07;101851.28;110614;1259;19041;-53
2022/08/07 02:58:16;;;;;;;;;10.67;9.00;;;;;20.99;45.00;101852.13;110586;1259;18766;-57
2022/08/07 03:00:43;;;;;;;;;10.00;9.33;;;;;21.02;45.13;101858.20;110528;1259;20118;-57
2022/08/07 03:03:11;;;;;;;;;9.67;9.67;;;;;21.00;44.80;101854.08;110441;1260;18751;-53
2022/08/07 03:05:38;;;;;;;;;7.00;7.00;;;;;21.00;44.85;101849.00;110832;1258;18742;-54
2022/08/07 03:08:06;;;;;;;;;12.00;10.00;;;;;21.01;44.84;101848.88;110575;1259;19551;-54
2022/08/07 03:10:33;;;;;;;;;9.67;9.67;;;;;21.09;44.59;101850.44;110798;1258;18341;-52
2022/08/07 03:13:01;;;;;;;;;9.67;9.67;;;;;21.16;44.33;101847.98;110808;1258;18933;-53
2022/08/07 03:15:28;;;;;;;;;11.67;10.33;;;;;21.19;44.25;101850.08;110573;1258;19604;-53
2022/08/07 03:17:55;;;;;;;;;10.67;10.67;;;;;21.18;44.07;101847.05;110766;1258;18648;-54
2022/08/07 03:20:23;;;;;;;;;9.67;9.67;;;;;21.19;44.04;101847.99;110787;1258;22261;-53
2022/08/07 03:22:50;;;;;;;;;10.00;10.00;;;;;21.21;44.03;101848.53;110463;1260;19593;-53
2022/08/07 03:25:19;;;;;;;;;11.00;10.00;;;;;21.18;43.97;101850.88;110756;1258;22261;-54
2022/08/07 03:27:47;;;;;;;;;13.50;13.00;;;;;21.16;43.87;101843.75;110489;1260;22138;-53
2022/08/07 03:30:14;;;;;;;;;11.00;10.00;;;;;21.17;43.87;101850.27;110577;1258;19529;-55
2022/08/07 03:32:42;;;;;;;;;11.00;10.67;;;;;21.15;43.79;101847.29;110783;1258;18698;-54
2022/08/07 03:35:09;;;;;;;;;10.00;9.33;;;;;21.14;43.83;101848.38;110576;1258;18898;-54
2022/08/07 03:37:36;;;;;;;;;12.00;11.00;;;;;21.15;43.84;101851.52;110773;1258;22240;-53
2022/08/07 03:40:04;;;;;;;;;13.50;12.00;;;;;21.16;43.92;101849.76;110767;1258;18778;-54
2022/08/07 03:42:31;;;;;;;;;12.67;10.33;;;;;21.19;43.98;101850.62;110773;1258;19208;-54
2022/08/07 03:44:59;;;;;;;;;14.00;13.00;;;;;21.17;43.93;101854.77;110788;1258;19620;-53
2022/08/07 03:47:26;;;;;;;;;15.00;11.50;;;;;21.13;44.21;101856.10;110509;1259;20513;-56
2022/08/07 03:49:54;;;;;;;;;12.00;11.33;;;;;21.08;44.11;101855.06;110772;1258;18891;-55
2022/08/07 03:52:21;;;;;;;;;11.00;11.00;;;;;21.09;44.12;101854.25;110607;1258;19560;-54
2022/08/07 03:54:48;;;;;;;;;13.00;11.67;;;;;21.07;44.11;101859.55;110579;1258;18666;-53
2022/08/07 03:57:16;;;;;;;;;10.00;10.00;;;;;21.07;44.28;101860.88;110806;1258;19099;-56
2022/08/07 03:59:43;;;;;;;;;15.00;13.00;;;;;21.03;44.29;101861.00;110835;1258;21923;-55
2022/08/07 04:02:10;;;;;;;;;12.33;11.00;;;;;20.99;44.41;101859.48;110451;1260;18692;-53
2022/08/07 04:04:38;;;;;;;;;13.00;11.00;;;;;20.98;44.53;101864.40;110589;1258;19007;-54
2022/08/07 04:07:07;;;;;;;;;14.33;14.00;;;;;21.01;44.58;101860.88;110777;1258;19677;-54
2022/08/07 04:09:34;;;;;;;;;13.00;11.00;;;;;21.01;44.46;101863.84;110730;1258;18750;-57
2022/08/07 04:12:01;;;;;;;;;14.33;13.00;;;;;21.04;44.66;101869.86;110765;1258;18920;-53
2022/08/07 04:14:29;;;;;;;;;12.67;11.00;;;;;21.06;44.70;101871.40;110792;1258;21533;-52
2022/08/07 04:16:56;;;;;;;;;11.00;10.33;;;;;21.04;44.65;101873.50;110647;1258;18872;-59
2022/08/07 04:19:24;;;;;;;;;14.00;11.00;;;;;21.03;44.49;101877.73;110352;1260;24320;-51
2022/08/07 04:21:52;;;;;;;;;13.33;10.67;;;;;21.05;44.59;101876.14;110605;1258;22745;-54
2022/08/07 04:24:19;;;;;;;;;11.00;11.00;;;;;21.09;44.73;101877.00;109794;1259;850412;-57
2022/08/07 04:26:46;;;;;;;;;10.33;10.33;;;;;21.11;44.84;101880.08;110763;1258;22784;-54
2022/08/07 04:29:14;;;;;;;;;14.33;14.33;;;;;21.15;44.75;101877.66;110626;1258;19550;-56
2022/08/07 04:31:41;;;;;;;;;13.50;12.00;;;;;21.16;44.68;101876.85;110573;1259;18786;-53
2022/08/07 04:34:08;;;;;;;;;10.00;10.00;;;;;21.16;45.00;101876.34;110576;1258;19039;-56
2022/08/07 04:36:36;;;;;;;;;10.33;10.33;;;;;21.17;44.73;101875.99;110617;1258;19742;-52
2022/08/07 04:39:03;;;;;;;;;13.00;13.00;;;;;21.21;44.90;101873.61;110794;1258;18761;-54
2022/08/07 04:41:31;;;;;;;;;13.00;10.67;;;;;21.18;44.94;101877.02;110735;1258;18888;-56
2022/08/07 04:43:58;;;;;;;;;13.33;13.33;;;;;21.22;44.94;101877.31;110520;1258;22403;-53
2022/08/07 04:46:25;;;;;;;;;13.00;13.00;;;;;21.27;45.08;101875.58;110586;1258;18782;-56
2022/08/07 04:48:53;;;;;;;;;13.00;11.00;;;;;21.32;44.97;101877.42;110760;1258;19045;-55
2022/08/07 04:51:20;;;;;;;;;13.00;10.67;;;;;21.36;44.83;101879.23;110799;1258;19521;-54
2022/08/07 04:53:47;;;;;;;;;12.00;11.00;;;;;21.40;44.83;101878.70;110807;1258;21129;-55
2022/08/07 04:56:15;;;;;;;;;10.67;10.00;;;;;21.40;45.00;101879.24;110438;1260;18850;-56
2022/08/07 04:58:42;;;;;;;;;10.33;10.00;;;;;21.39;45.13;101872.34;110578;1259;22329;-53
2022/08/07 05:01:12;;;;;;;;;10.33;10.33;;;;;21.42;45.13;101872.86;110595;1258;18757;-53
2022/08/07 05:03:40;;;;;;;;;11.00;10.33;;;;;21.44;45.03;101874.62;110584;1259;18868;-57
2022/08/07 05:06:08;;;;;;;;;11.00;11.00;;;;;21.45;45.04;101877.94;110761;1258;19522;-54
2022/08/07 05:08:35;;;;;;;;;15.00;14.00;;;;;21.47;45.09;101879.98;110744;1258;19086;-54
2022/08/07 05:11:03;;;;;;;;;13.00;11.00;;;;;21.51;45.09;101881.20;110750;1258;20501;-54
2022/08/07 05:13:35;;;;;;;;;18.33;17.00;;;;;21.52;45.23;101884.56;110537;1258;22718;-55
2022/08/07 05:16:03;;;;;;;;;18.33;17.33;;;;;21.56;45.11;101887.40;110523;1259;22427;-55
2022/08/07 05:18:30;;;;;;;;;13.50;12.00;;;;;21.57;45.23;101888.05;110470;1259;18940;-55
2022/08/07 05:20:57;;;;;;;;;15.33;13.67;;;;;21.58;45.12;101887.08;110740;1258;21393;-55
2022/08/07 05:23:25;;;;;;;;;13.00;11.00;;;;;21.49;45.30;101885.39;110717;1258;19394;-56
2022/08/07 05:25:52;;;;;;;;;13.00;11.50;;;;;21.44;45.32;101888.98;110658;1258;19214;-52
2022/08/07 05:28:20;;;;;;;;;13.00;11.00;;;;;21.44;45.15;101886.48;110694;1258;19512;-52
2022/08/07 05:30:47;;;;;;;;;10.33;10.33;;;;;21.46;45.14;101888.39;110472;1259;18717;-53
2022/08/07 05:33:15;;;;;;;;;11.00;10.00;;;;;21.49;45.15;101889.01;110778;1258;18827;-56
2022/08/07 05:35:42;;;;;;;;;13.50;12.50;;;;;21.43;45.65;101892.17;110571;1259;19537;-53
2022/08/07 05:38:09;;;;;;;;;22.00;20.00;;;;;21.38;45.73;101890.36;110674;1258;18854;-57
2022/08/07 05:40:37;;;;;;;;;21.00;18.00;;;;;21.34;45.79;101890.36;110711;1259;18851;-53
2022/08/07 05:43:04;;;;;;;;;14.33;13.67;;;;;21.41;45.64;101889.09;110749;1258;22063;-54
2022/08/07 05:45:31;;;;;;;;;17.00;13.00;;;;;21.46;45.67;101890.77;110706;1258;18715;-55
2022/08/07 05:47:59;;;;;;;;;13.00;13.00;;;;;21.48;45.43;101889.91;110746;1258;18967;-53
2022/08/07 05:50:26;;;;;;;;;17.33;15.33;;;;;21.55;45.54;101892.77;110805;1259;19976;-55
2022/08/07 05:52:54;;;;;;;;;23.00;22.33;;;;;21.64;45.24;101889.90;110744;1259;18748;-54
2022/08/07 05:55:21;;;;;;;;;35.00;31.00;;;;;21.62;45.47;101889.60;110729;1258;19560;-55
2022/08/07 05:57:48;;;;;;;;;36.00;33.00;;;;;21.60;45.62;101888.09;110712;1258;22290;-54
2022/08/07 06:00:16;;;;;;;;;31.00;28.00;;;;;21.74;45.36;101887.66;110745;1258;18961;-56
2022/08/07 06:02:43;;;;;;;;;28.00;26.00;;;;;21.86;45.25;101889.27;110682;1258;18814;-55
2022/08/07 06:05:10;;;;;;;;;27.50;24.50;;;;;21.96;45.03;101890.42;110671;1258;22766;-52
2022/08/07 06:07:38;;;;;;;;;22.67;21.67;;;;;21.97;45.00;101886.93;110572;1258;18747;-56
2022/08/07 06:10:05;;;;;;;;;18.33;17.33;;;;;22.08;44.93;101886.54;110732;1258;18975;-54
2022/08/07 06:12:33;;;;;;;;;19.00;18.00;;;;;22.18;44.72;101889.55;110405;1260;19544;-55
2022/08/07 06:15:00;;;;;;;;;19.00;15.67;;;;;22.09;44.89;101883.67;110747;1258;18693;-54
2022/08/07 06:17:28;;;;;;;;;18.00;17.00;;;;;22.10;44.94;101883.73;110825;1258;19401;-57
2022/08/07 06:19:55;;;;;;;;;21.67;17.00;;;;;22.26;44.91;101888.41;110765;1258;19516;-55
2022/08/07 06:22:23;;;;;;;;;14.00;13.00;;;;;22.30;44.87;101888.75;110448;1260;18761;-56
2022/08/07 06:24:50;;;;;;;;;15.00;13.33;;;;;22.41;44.92;101891.45;110654;1258;18829;-56
2022/08/07 06:27:18;;;;;;;;;27.33;23.33;;;;;22.54;44.86;101890.05;110541;1259;19428;-54
2022/08/07 06:29:45;;;;;;;;;26.67;22.00;;;;;22.70;44.55;101885.86;110801;1258;18794;-56
2022/08/07 06:32:13;;;;;;;;;22.50;20.00;;;;;22.80;44.32;101891.70;110443;1260;19130;-57
2022/08/07 06:34:40;;;;;;;;;18.33;16.33;;;;;22.78;44.16;101888.16;110777;1258;19696;-55
2022/08/07 06:37:07;;;;;;;;;16.00;15.00;;;;;22.76;44.20;101888.73;110472;1260;19440;-51
2022/08/07 06:39:35;;;;;;;;;15.00;13.00;;;;;22.86;44.11;101892.18;110448;1261;20474;-53
2022/08/07 06:42:02;;;;;;;;;11.67;11.00;;;;;22.83;44.32;101894.11;110624;1258;19554;-53
2022/08/07 06:44:30;;;;;;;;;11.00;11.00;;;;;22.82;44.30;101890.17;110828;1258;18992;-51
2022/08/07 06:46:57;;;;;;;;;16.00;15.33;;;;;22.95;44.16;101896.00;110393;1260;23437;-54
2022/08/07 06:49:24;;;;;;;;;11.50;11.00;;;;;23.01;43.98;101894.06;110518;1259;19534;-57
2022/08/07 06:51:51;;;;;;;;;11.33;10.67;;;;;22.98;43.91;101895.98;110705;1258;24406;-55
2022/08/07 06:54:19;;;;;;;;;10.00;10.00;;;;;23.06;43.85;101899.20;110768;1258;18666;-56
2022/08/07 06:56:49;;;;;;;;;10.50;10.00;;;;;23.08;43.72;101900.95;110797;1258;22276;-56
2022/08/07 06:59:18;;;;;;;;;12.00;10.67;;;;;23.07;43.96;101900.50;110718;1258;18808;-52
2022/08/07 07:01:45;;;;;;;;;12.00;11.00;;;;;23.14;43.93;101899.06;110728;1258;22794;-55
2022/08/07 07:04:13;;;;;;;;;10.33;10.33;;;;;23.17;44.00;101903.82;110422;1260;19556;-53
2022/08/07 07:06:40;;;;;;;;;11.00;10.33;;;;;23.23;44.04;101901.91;110748;1258;18722;-57
2022/08/07 07:09:08;;;;;;;;;11.00;10.67;;;;;23.28;44.17;101903.39;110615;1258;18976;-54
2022/08/07 07:11:35;;;;;;;;;10.00;10.00;;;;;23.34;44.27;101903.45;110791;1258;22846;-57
2022/08/07 07:14:02;;;;;;;;;10.67;10.33;;;;;23.47;44.28;101906.94;110778;1258;18797;-55
2022/08/07 07:16:30;;;;;;;;;8.50;8.50;;;;;23.49;44.20;101906.41;110451;1260;22527;-53
2022/08/07 07:18:57;;;;;;;;;11.00;10.67;;;;;23.57;44.64;101906.25;110764;1258;19536;-56
2022/08/07 07:21:25;;;;;;;;;8.33;8.00;;;;;23.68;44.43;101902.09;110707;1258;20992;-54
2022/08/07 07:23:52;;;;;;;;;10.67;8.67;;;;;23.46;44.74;101905.56;110699;1258;18758;-55
2022/08/07 07:26:19;;;;;;;;;12.00;12.00;;;;;23.47;44.77;101902.91;110727;1258;19552;-53
2022/08/07 07:28:47;;;;;;;;;10.67;10.67;;;;;23.59;44.83;101889.62;110642;1258;19070;-53
2022/08/07 07:31:14;;;;;;;;;8.00;7.00;;;;;23.49;45.18;101888.69;110640;1258;18947;-52
2022/08/07 07:33:42;;;;;;;;;8.00;6.67;;;;;23.42;45.28;101888.10;110627;1258;19563;-56
2022/08/07 07:36:09;;;;;;;;;8.00;8.00;;;;;23.40;45.46;101888.59;110660;1258;18490;-56
2022/08/07 07:38:37;;;;;;;;;7.67;7.67;;;;;23.49;45.33;101888.67;110190;1260;18871;-53
2022/08/07 07:41:04;;;;;;;;;7.33;7.00;;;;;23.32;45.59;101889.38;110580;1258;19337;-54
2022/08/07 07:43:31;;;;;;;;;8.00;8.00;;;;;23.30;45.62;101893.65;110794;1257;20381;-52
2022/08/07 07:45:59;;;;;;;;;6.67;6.67;;;;;23.57;45.41;101893.45;110462;1260;22859;-54
2022/08/07 07:48:26;;;;;;;;;6.00;6.00;;;;;23.50;45.57;101893.67;110776;1258;22957;-54
2022/08/07 07:50:54;;;;;;;;;8.00;8.00;;;;;23.38;45.51;101889.16;110549;1260;18395;-53
2022/08/07 07:53:21;;;;;;;;;10.33;7.67;;;;;23.52;45.68;101886.11;110735;1258;23658;-55
2022/08/07 07:55:48;;;;;;;;;7.00;7.00;;;;;23.30;45.35;101880.21;110786;1258;19419;-54
2022/08/07 07:58:16;;;;;;;;;7.33;7.00;;;;;23.29;45.25;101883.08;110478;1260;19286;-56
2022/08/07 08:00:43;;;;;;;;;7.33;7.00;;;;;23.42;45.24;101882.70;110755;1258;19462;-54
2022/08/07 08:03:11;;;;;;;;;11.00;11.00;;;;;23.57;45.52;101876.73;110794;1258;22721;-55
2022/08/07 08:05:38;;;;;;;;;8.00;8.00;;;;;23.77;45.18;101872.82;110513;1260;18498;-59
2022/08/07 08:08:06;;;;;;;;;7.50;7.50;;;;;23.90;45.13;101873.44;110583;1258;18750;-56
2022/08/07 08:10:33;;;;;;;;;13.33;10.00;;;;;23.91;45.06;101874.19;110709;1258;19659;-53
2022/08/07 08:13:01;;;;;;;;;12.00;10.33;;;;;23.66;45.16;101876.27;110753;1258;21080;-57
2022/08/07 08:15:28;;;;;;;;;10.00;10.00;;;;;23.47;45.40;101878.28;110558;1258;19019;-54
2022/08/07 08:17:55;;;;;;;;;10.00;10.00;;;;;23.58;45.01;101878.41;110829;1258;22194;-55
2022/08/07 08:20:23;;;;;;;;;8.00;7.00;;;;;23.60;44.09;101873.25;110762;1258;18760;-53
2022/08/07 08:28:20;;;;;;;;;11.67;9.33;;;;;23.27;43.54;101878.13;110719;1258;18757;-54
2022/08/07 08:30:48;;;;;;;;;10.00;8.67;;;;;23.23;44.27;101875.45;110366;1261;18936;-56
2022/08/07 08:33:17;;;;;;;;;8.00;8.00;;;;;23.43;44.75;101874.36;110773;1258;22171;-54
2022/08/07 08:35:45;;;;;;;;;6.67;6.67;;;;;23.62;44.74;101871.02;110796;1258;18686;-53
2022/08/07 08:38:12;;;;;;;;;6.33;6.33;;;;;23.86;44.13;101875.56;110604;1258;18738;-54
2022/08/07 08:40:39;;;;;;;;;7.00;7.00;;;;;23.88;44.12;101871.27;110406;1260;19514;-57
2022/08/07 08:43:07;;;;;;;;;8.00;7.00;;;;;23.91;43.79;101875.50;110691;1258;22245;-57
2022/08/07 08:45:34;;;;;;;;;8.00;7.00;;;;;23.93;43.53;101873.82;110723;1258;18796;-56
2022/08/07 08:48:01;;;;;;;;;6.00;6.00;;;;;23.97;43.65;101871.55;110780;1258;19432;-57
2022/08/07 08:50:29;;;;;;;;;7.67;6.33;;;;;24.05;43.24;101872.02;110757;1258;18488;-54
2022/08/07 08:52:56;;;;;;;;;10.00;8.00;;;;;23.89;42.66;101870.81;110719;1258;18726;-55
2022/08/07 08:55:23;;;;;;;;;10.00;9.33;;;;;23.66;42.64;101876.29;110693;1258;22007;-55
2022/08/07 08:57:51;;;;;;;;;8.00;8.00;;;;;23.59;42.78;101873.52;110733;1258;18777;-56
2022/08/07 09:00:19;;;;;;;;;6.00;6.00;;;;;23.69;43.14;101867.91;110470;1260;20142;-52
2022/08/07 09:02:47;;;;;;;;;7.00;7.00;;;;;23.66;43.36;101859.65;110497;1260;20348;-52
2022/08/07 09:05:14;;;;;;;;;8.00;7.50;;;;;23.80;43.45;101866.40;110642;1258;18553;-53
2022/08/07 09:07:42;;;;;;;;;6.00;6.00;;;;;23.76;43.12;101861.48;110682;1258;20658;-56
2022/08/07 09:10:10;;;;;;;;;6.33;6.00;;;;;23.76;42.93;101860.91;110734;1258;19462;-56
2022/08/07 09:12:38;;;;;;;;;5.00;5.00;;;;;23.82;43.04;101862.83;110772;1258;20791;-52
2022/08/07 09:15:19;;;;;;;;;7.33;7.00;;;;;23.83;43.29;101865.61;110457;1260;23000;-55
2022/08/07 09:17:47;;;;;;;;;7.00;6.33;;;;;24.03;43.18;101859.55;110501;1260;19537;-54
2022/08/07 09:20:14;;;;;;;;;6.00;6.00;;;;;24.06;43.41;101855.91;110750;1258;18481;-55
2022/08/07 09:22:42;;;;;;;;;7.33;7.33;;;;;24.17;43.24;101855.19;110748;1258;20645;-58
2022/08/07 09:25:09;;;;;;;;;7.00;7.00;;;;;24.31;43.16;101858.90;110664;1258;20070;-57
2022/08/07 09:27:37;;;;;;;;;5.00;5.00;;;;;24.29;43.19;101858.08;110706;1258;19895;-55
2022/08/07 09:30:04;;;;;;;;;6.00;6.00;;;;;24.30;42.89;101857.67;110776;1258;18990;-54
2022/08/07 09:32:31;;;;;;;;;6.00;6.00;;;;;24.25;42.55;101856.64;110739;1258;22992;-53
2022/08/07 09:34:59;;;;;;;;;5.00;5.00;;;;;24.15;42.44;101853.27;110754;1258;18587;-55
2022/08/07 09:37:26;;;;;;;;;8.00;8.00;;;;;24.02;41.89;101853.24;110723;1258;18832;-54
2022/08/07 09:39:54;;;;;;;;;5.00;5.00;;;;;23.90;41.80;101852.42;110619;1258;19512;-55
2022/08/07 09:42:21;;;;;;;;;6.00;5.00;;;;;24.08;41.75;101849.71;110755;1258;18876;-56
2022/08/07 09:44:49;;;;;;;;;5.00;5.00;;;;;24.18;40.98;101837.08;110306;1260;19706;-53
2022/08/07 09:47:16;;;;;;;;;3.00;3.00;;;;;24.17;40.64;101834.02;111519;1258;19519;-52
2022/08/07 09:49:44;;;;;;;;;4.00;3.00;;;;;24.44;40.54;101829.47;110737;1258;18581;-55
2022/08/07 09:52:11;;;;;;;;;3.00;3.00;;;;;24.53;40.19;101821.44;110681;1259;18800;-57
2022/08/07 09:54:39;;;;;;;;;3.00;3.00;;;;;24.31;39.67;101821.92;110560;1259;22794;-53
2022/08/07 09:57:06;;;;;;;;;3.00;3.00;;;;;24.39;39.81;101815.30;110522;1261;18468;-56
2022/08/07 09:59:33;;;;;;;;;3.00;3.00;;;;;24.44;39.45;101807.96;110342;1260;23110;-57
2022/08/07 10:02:02;;;;;;;;;5.67;4.00;;;;;24.45;39.74;101808.20;110642;1258;19725;-58
2022/08/07 10:04:29;;;;;;;;;3.00;3.00;;;;;24.38;39.98;101811.08;110619;1258;18641;-56
2022/08/07 10:06:57;;;;;;;;;3.67;3.00;;;;;24.19;40.21;101808.98;110539;1259;18903;-58
2022/08/07 10:09:24;;;;;;;;;7.50;7.00;;;;;23.97;40.50;101804.53;110481;1259;23211;-55
2022/08/07 10:11:54;;;;;;;;;6.00;6.00;;;;;23.74;40.59;101800.34;110465;1260;18686;-56
2022/08/07 10:14:21;;;;;;;;;15.33;14.67;;;;;23.74;41.28;101795.68;110639;1259;28402;-55
2022/08/07 10:16:48;;;;;;;;;12.33;11.33;;;;;24.04;41.52;101796.41;110333;1260;19619;-56
2022/08/07 10:19:16;;;;;;;;;8.00;8.00;;;;;24.42;41.28;101792.85;110512;1258;18743;-51
2022/08/07 10:21:43;;;;;;;;;7.00;6.00;;;;;24.68;40.77;101791.16;110621;1258;18891;-53
2022/08/07 10:24:10;;;;;;;;;49.67;42.67;;;;;24.61;40.50;101788.41;110293;1260;19480;-55
2022/08/07 10:26:38;;;;;;;;;4145.25;4145.25;;;;;24.73;40.10;101784.32;110581;1258;20813;-54
2022/08/07 10:29:05;;;;;;;;;100.00;89.00;;;;;24.83;39.52;101782.08;110613;1258;22646;-53
2022/08/07 10:31:33;;;;;;;;;67.67;52.00;;;;;25.09;39.41;101779.98;110410;1261;19519;-56
2022/08/07 10:34:00;;;;;;;;;47.00;38.00;;;;;25.27;39.57;101776.75;110547;1258;19065;-52
2022/08/07 10:36:28;;;;;;;;;49.00;41.00;;;;;25.01;38.71;101776.98;110392;1261;18993;-53
2022/08/07 10:38:55;;;;;;;;;18.33;18.00;;;;;24.87;39.20;101780.86;110467;1260;19511;-54
2022/08/07 10:41:22;;;;;;;;;21.67;18.00;;;;;24.85;39.24;101780.95;110544;1259;27285;-54
2022/08/07 10:43:50;;;;;;;;;19.00;17.00;;;;;24.87;39.39;101780.18;110500;1258;18973;-54
2022/08/07 10:46:17;;;;;;;;;12.00;12.00;;;;;24.84;39.32;101781.97;110588;1258;19578;-55
2022/08/07 10:48:47;;;;;;;;;6.33;6.00;;;;;24.71;38.97;101784.02;110367;1260;19260;-56
2022/08/07 10:51:15;;;;;;;;;16.50;16.00;;;;;24.23;38.88;101780.91;110316;1260;19584;-54
2022/08/07 10:53:42;;;;;;;;;10.67;10.00;;;;;24.05;39.11;101775.90;110635;1258;22575;-56
2022/08/07 10:56:10;;;;;;;;;13.00;12.00;;;;;24.01;39.13;101773.58;110664;1258;18698;-54
2022/08/07 10:58:37;;;;;;;;;9.67;9.67;;;;;24.00;38.90;101772.66;110432;1260;23001;-55
2022/08/07 11:01:04;;;;;;;;;17.67;14.00;;;;;24.04;38.74;101770.91;110756;1258;20049;-56
2022/08/07 11:03:33;;;;;;;;;12.00;12.00;;;;;24.10;39.00;101768.98;110664;1258;18514;-55
2022/08/07 11:06:01;;;;;;;;;8.00;8.00;;;;;24.09;39.19;101770.73;110770;1258;19014;-56
2022/08/07 11:08:28;;;;;;;;;8.67;8.00;;;;;24.04;39.27;101763.40;110521;1258;19528;-56
2022/08/07 11:10:56;;;;;;;;;7.00;7.00;;;;;24.11;39.35;101760.80;110594;1258;22251;-53
2022/08/07 11:13:23;;;;;;;;;5.00;5.00;;;;;24.01;39.32;101756.18;110304;1260;19037;-54